sensor_id;sensor_type;location;lat;lon;timestamp;P1;durP1;ratioP1;P2;durP2;ratioP2
18651;SDS011;9455;54.302;10.124;2023-03-13T00:01:50;25.73;;;4.97;;
18651;SDS011;9455;54.302;10.124;2023-03-13T00:04:17;25.90;;;4.57;;
18651;SDS011;9455;54.302;10.124;2023-03-13T00:06:43;24.63;;;4.47;;
18651;SDS011;9455;54.302;10.124;2023-03-13T00:09:13;44.23;;;4.97;;
18651;SDS011;9455;54.302;10.124;2023-03-13T00:11:40;36.90;;;5.87;;
18651;SDS011;9455;54.302;10.124;2023-03-13T00:14:08;39.83;;;4.97;;
18651;SDS011;9455;54.302;10.124;2023-03-13T00:16:35;42.67;;;5.40;;
18651;SDS011;9455;54.302;10.124;2023-03-13T00:19:03;26.97;;;5.03;;
18651;SDS011;9455;54.302;10.124;2023-03-13T00:21:31;30.63;;;6.57;;
18651;SDS011;9455;54.302;10.124;2023-03-13T00:23:58;41.83;;;5.33;;
18651;SDS011;9455;54.302;10.124;2023-03-13T00:26:27;38.33;;;5.63;;
18651;SDS011;9455;54.302;10.124;2023-03-13T00:28:54;36.70;;;6.13;;
18651;SDS011;9455;54.302;10.124;2023-03-13T00:31:22;31.80;;;5.33;;
18651;SDS011;9455;54.302;10.124;2023-03-13T00:33:50;31.57;;;5.30;;
18651;SDS011;9455;54.302;10.124;2023-03-13T00:36:18;38.63;;;5.17;;
18651;SDS011;9455;54.302;10.124;2023-03-13T00:38:46;40.83;;;6.57;;
18651;SDS011;9455;54.302;10.124;2023-03-13T00:41:14;26.87;;;5.37;;
18651;SDS011;9455;54.302;10.124;2023-03-13T00:43:43;27.27;;;4.23;;
18651;SDS011;9455;54.302;10.124;2023-03-13T00:46:11;35.33;;;5.97;;
18651;SDS011;9455;54.302;10.124;2023-03-13T00:48:39;35.20;;;6.27;;
18651;SDS011;9455;54.302;10.124;2023-03-13T00:51:06;36.57;;;6.37;;
18651;SDS011;9455;54.302;10.124;2023-03-13T00:53:33;35.17;;;5.50;;
18651;SDS011;9455;54.302;10.124;2023-03-13T00:56:00;31.30;;;5.80;;
18651;SDS011;9455;54.302;10.124;2023-03-13T00:58:29;35.57;;;5.53;;
18651;SDS011;9455;54.302;10.124;2023-03-13T01:01:04;26.63;;;5.67;;
18651;SDS011;9455;54.302;10.124;2023-03-13T01:03:33;23.07;;;7.07;;
18651;SDS011;9455;54.302;10.124;2023-03-13T01:06:00;33.10;;;5.47;;
18651;SDS011;9455;54.302;10.124;2023-03-13T01:08:29;47.83;;;6.30;;
18651;SDS011;9455;54.302;10.124;2023-03-13T01:10:57;35.10;;;6.17;;
18651;SDS011;9455;54.302;10.124;2023-03-13T01:13:24;40.27;;;6.33;;
18651;SDS011;9455;54.302;10.124;2023-03-13T01:15:53;31.70;;;6.03;;
18651;SDS011;9455;54.302;10.124;2023-03-13T01:18:21;27.60;;;5.90;;
18651;SDS011;9455;54.302;10.124;2023-03-13T01:20:48;46.57;;;6.10;;
18651;SDS011;9455;54.302;10.124;2023-03-13T01:23:14;26.87;;;6.17;;
18651;SDS011;9455;54.302;10.124;2023-03-13T01:25:41;19.33;;;6.33;;
18651;SDS011;9455;54.302;10.124;2023-03-13T01:28:07;23.07;;;5.70;;
18651;SDS011;9455;54.302;10.124;2023-03-13T01:30:34;28.57;;;5.77;;
18651;SDS011;9455;54.302;10.124;2023-03-13T01:33:00;38.93;;;8.10;;
18651;SDS011;9455;54.302;10.124;2023-03-13T01:35:28;26.17;;;6.33;;
18651;SDS011;9455;54.302;10.124;2023-03-13T01:37:55;30.20;;;6.30;;
18651;SDS011;9455;54.302;10.124;2023-03-13T01:40:21;37.40;;;6.57;;
18651;SDS011;9455;54.302;10.124;2023-03-13T01:42:49;36.83;;;6.30;;
18651;SDS011;9455;54.302;10.124;2023-03-13T01:48:26;31.47;;;8.03;;
18651;SDS011;9455;54.302;10.124;2023-03-13T01:50:59;20.57;;;5.63;;
18651;SDS011;9455;54.302;10.124;2023-03-13T01:53:27;37.40;;;10.90;;
18651;SDS011;9455;54.302;10.124;2023-03-13T01:55:56;58.73;;;16.50;;
18651;SDS011;9455;54.302;10.124;2023-03-13T01:58:26;61.30;;;17.37;;
18651;SDS011;9455;54.302;10.124;2023-03-13T02:00:55;39.77;;;7.83;;
18651;SDS011;9455;54.302;10.124;2023-03-13T02:03:22;44.10;;;6.07;;
18651;SDS011;9455;54.302;10.124;2023-03-13T02:05:51;27.20;;;5.60;;
18651;SDS011;9455;54.302;10.124;2023-03-13T02:08:21;34.67;;;6.37;;
18651;SDS011;9455;54.302;10.124;2023-03-13T02:10:52;33.37;;;5.63;;
18651;SDS011;9455;54.302;10.124;2023-03-13T02:13:21;22.90;;;5.33;;
18651;SDS011;9455;54.302;10.124;2023-03-13T02:15:48;31.93;;;5.27;;
18651;SDS011;9455;54.302;10.124;2023-03-13T02:18:15;24.93;;;5.10;;
18651;SDS011;9455;54.302;10.124;2023-03-13T02:20:42;30.27;;;5.90;;
18651;SDS011;9455;54.302;10.124;2023-03-13T02:23:11;33.30;;;6.27;;
18651;SDS011;9455;54.302;10.124;2023-03-13T02:25:46;21.47;;;4.67;;
18651;SDS011;9455;54.302;10.124;2023-03-13T02:28:15;19.67;;;5.27;;
18651;SDS011;9455;54.302;10.124;2023-03-13T02:30:44;23.77;;;5.37;;
18651;SDS011;9455;54.302;10.124;2023-03-13T02:33:14;28.67;;;5.80;;
18651;SDS011;9455;54.302;10.124;2023-03-13T02:35:43;20.13;;;5.57;;
18651;SDS011;9455;54.302;10.124;2023-03-13T02:38:11;33.67;;;5.47;;
18651;SDS011;9455;54.302;10.124;2023-03-13T02:40:44;25.00;;;5.77;;
18651;SDS011;9455;54.302;10.124;2023-03-13T02:43:14;29.60;;;5.20;;
18651;SDS011;9455;54.302;10.124;2023-03-13T02:46:02;23.93;;;5.50;;
18651;SDS011;9455;54.302;10.124;2023-03-13T02:48:32;27.03;;;5.80;;
18651;SDS011;9455;54.302;10.124;2023-03-13T02:51:01;28.17;;;5.77;;
18651;SDS011;9455;54.302;10.124;2023-03-13T02:53:30;21.57;;;4.77;;
18651;SDS011;9455;54.302;10.124;2023-03-13T02:56:01;32.30;;;6.00;;
18651;SDS011;9455;54.302;10.124;2023-03-13T02:58:34;20.27;;;5.57;;
18651;SDS011;9455;54.302;10.124;2023-03-13T03:01:03;34.07;;;5.27;;
18651;SDS011;9455;54.302;10.124;2023-03-13T03:03:31;28.43;;;5.80;;
18651;SDS011;9455;54.302;10.124;2023-03-13T03:05:58;39.90;;;7.33;;
18651;SDS011;9455;54.302;10.124;2023-03-13T03:08:25;38.37;;;6.20;;
18651;SDS011;9455;54.302;10.124;2023-03-13T03:10:51;22.20;;;6.27;;
18651;SDS011;9455;54.302;10.124;2023-03-13T03:13:19;35.00;;;6.33;;
18651;SDS011;9455;54.302;10.124;2023-03-13T03:15:46;27.37;;;7.40;;
18651;SDS011;9455;54.302;10.124;2023-03-13T03:18:12;29.70;;;7.43;;
18651;SDS011;9455;54.302;10.124;2023-03-13T03:20:39;32.70;;;8.87;;
18651;SDS011;9455;54.302;10.124;2023-03-13T03:23:06;28.03;;;8.67;;
18651;SDS011;9455;54.302;10.124;2023-03-13T03:25:32;35.30;;;9.30;;
18651;SDS011;9455;54.302;10.124;2023-03-13T03:27:59;25.80;;;9.07;;
18651;SDS011;9455;54.302;10.124;2023-03-13T03:30:27;39.00;;;9.97;;
18651;SDS011;9455;54.302;10.124;2023-03-13T03:32:53;36.50;;;9.70;;
18651;SDS011;9455;54.302;10.124;2023-03-13T03:35:20;37.03;;;9.70;;
18651;SDS011;9455;54.302;10.124;2023-03-13T03:37:46;27.80;;;9.20;;
18651;SDS011;9455;54.302;10.124;2023-03-13T03:40:13;35.67;;;8.70;;
18651;SDS011;9455;54.302;10.124;2023-03-13T03:42:40;42.30;;;9.87;;
18651;SDS011;9455;54.302;10.124;2023-03-13T03:45:07;36.33;;;9.77;;
18651;SDS011;9455;54.302;10.124;2023-03-13T03:47:35;36.17;;;8.90;;
18651;SDS011;9455;54.302;10.124;2023-03-13T03:50:02;45.37;;;9.17;;
18651;SDS011;9455;54.302;10.124;2023-03-13T03:52:29;37.60;;;8.63;;
18651;SDS011;9455;54.302;10.124;2023-03-13T03:54:55;39.33;;;9.07;;
18651;SDS011;9455;54.302;10.124;2023-03-13T03:57:23;35.13;;;9.07;;
18651;SDS011;9455;54.302;10.124;2023-03-13T03:59:49;34.97;;;7.93;;
18651;SDS011;9455;54.302;10.124;2023-03-13T04:02:16;34.07;;;7.87;;
18651;SDS011;9455;54.302;10.124;2023-03-13T04:04:44;31.57;;;9.27;;
18651;SDS011;9455;54.302;10.124;2023-03-13T04:07:10;42.83;;;8.03;;
18651;SDS011;9455;54.302;10.124;2023-03-13T04:09:37;25.93;;;7.47;;
18651;SDS011;9455;54.302;10.124;2023-03-13T04:12:03;30.60;;;8.00;;
18651;SDS011;9455;54.302;10.124;2023-03-13T04:14:30;38.77;;;7.87;;
18651;SDS011;9455;54.302;10.124;2023-03-13T04:16:57;28.67;;;7.23;;
18651;SDS011;9455;54.302;10.124;2023-03-13T04:19:23;38.93;;;8.10;;
18651;SDS011;9455;54.302;10.124;2023-03-13T04:21:51;35.77;;;6.87;;
18651;SDS011;9455;54.302;10.124;2023-03-13T04:24:18;40.37;;;8.17;;
18651;SDS011;9455;54.302;10.124;2023-03-13T04:26:44;25.30;;;8.00;;
18651;SDS011;9455;54.302;10.124;2023-03-13T04:29:11;31.57;;;8.20;;
18651;SDS011;9455;54.302;10.124;2023-03-13T04:31:38;41.53;;;9.37;;
18651;SDS011;9455;54.302;10.124;2023-03-13T04:34:04;25.43;;;6.90;;
18651;SDS011;9455;54.302;10.124;2023-03-13T04:36:31;20.23;;;7.57;;
18651;SDS011;9455;54.302;10.124;2023-03-13T04:38:58;34.73;;;7.40;;
18651;SDS011;9455;54.302;10.124;2023-03-13T04:41:25;34.30;;;7.80;;
18651;SDS011;9455;54.302;10.124;2023-03-13T04:43:52;32.23;;;7.70;;
18651;SDS011;9455;54.302;10.124;2023-03-13T04:46:19;41.27;;;7.83;;
18651;SDS011;9455;54.302;10.124;2023-03-13T04:48:45;31.40;;;8.20;;
18651;SDS011;9455;54.302;10.124;2023-03-13T04:51:12;21.20;;;7.37;;
18651;SDS011;9455;54.302;10.124;2023-03-13T04:53:38;36.27;;;7.17;;
18651;SDS011;9455;54.302;10.124;2023-03-13T04:56:07;30.90;;;7.00;;
18651;SDS011;9455;54.302;10.124;2023-03-13T04:58:33;26.13;;;6.80;;
18651;SDS011;9455;54.302;10.124;2023-03-13T05:01:00;25.63;;;7.20;;
18651;SDS011;9455;54.302;10.124;2023-03-13T05:03:26;40.60;;;8.93;;
18651;SDS011;9455;54.302;10.124;2023-03-13T05:05:53;38.53;;;6.90;;
18651;SDS011;9455;54.302;10.124;2023-03-13T05:08:19;23.60;;;7.30;;
18651;SDS011;9455;54.302;10.124;2023-03-13T05:10:46;22.40;;;6.77;;
18651;SDS011;9455;54.302;10.124;2023-03-13T05:13:14;30.07;;;7.17;;
18651;SDS011;9455;54.302;10.124;2023-03-13T05:15:40;25.57;;;6.40;;
18651;SDS011;9455;54.302;10.124;2023-03-13T05:18:07;28.60;;;7.67;;
18651;SDS011;9455;54.302;10.124;2023-03-13T05:20:34;31.60;;;7.03;;
18651;SDS011;9455;54.302;10.124;2023-03-13T05:23:00;29.23;;;7.13;;
18651;SDS011;9455;54.302;10.124;2023-03-13T05:25:27;21.23;;;6.60;;
18651;SDS011;9455;54.302;10.124;2023-03-13T05:27:53;31.87;;;6.73;;
18651;SDS011;9455;54.302;10.124;2023-03-13T05:30:21;27.87;;;7.27;;
18651;SDS011;9455;54.302;10.124;2023-03-13T05:32:48;28.03;;;8.20;;
18651;SDS011;9455;54.302;10.124;2023-03-13T05:35:14;25.90;;;6.17;;
18651;SDS011;9455;54.302;10.124;2023-03-13T05:37:41;24.33;;;6.77;;
18651;SDS011;9455;54.302;10.124;2023-03-13T05:40:10;18.50;;;6.50;;
18651;SDS011;9455;54.302;10.124;2023-03-13T05:42:37;26.80;;;5.90;;
18651;SDS011;9455;54.302;10.124;2023-03-13T05:45:04;18.13;;;5.40;;
18651;SDS011;9455;54.302;10.124;2023-03-13T05:47:34;21.77;;;5.97;;
18651;SDS011;9455;54.302;10.124;2023-03-13T05:50:02;13.17;;;5.57;;
18651;SDS011;9455;54.302;10.124;2023-03-13T05:52:30;23.53;;;5.20;;
18651;SDS011;9455;54.302;10.124;2023-03-13T05:54:56;25.20;;;8.20;;
18651;SDS011;9455;54.302;10.124;2023-03-13T05:57:23;30.93;;;11.03;;
18651;SDS011;9455;54.302;10.124;2023-03-13T05:59:50;72.90;;;23.70;;
18651;SDS011;9455;54.302;10.124;2023-03-13T06:02:16;18.20;;;6.00;;
18651;SDS011;9455;54.302;10.124;2023-03-13T06:04:46;19.37;;;5.33;;
18651;SDS011;9455;54.302;10.124;2023-03-13T06:07:12;12.77;;;5.10;;
18651;SDS011;9455;54.302;10.124;2023-03-13T06:09:39;10.67;;;5.17;;
18651;SDS011;9455;54.302;10.124;2023-03-13T06:12:06;11.20;;;5.23;;
18651;SDS011;9455;54.302;10.124;2023-03-13T06:14:33;23.07;;;5.93;;
18651;SDS011;9455;54.302;10.124;2023-03-13T06:17:00;17.73;;;4.90;;
18651;SDS011;9455;54.302;10.124;2023-03-13T06:19:26;11.93;;;4.23;;
18651;SDS011;9455;54.302;10.124;2023-03-13T06:21:54;8.83;;;3.47;;
18651;SDS011;9455;54.302;10.124;2023-03-13T06:24:21;10.43;;;3.37;;
18651;SDS011;9455;54.302;10.124;2023-03-13T06:26:48;12.80;;;4.50;;
18651;SDS011;9455;54.302;10.124;2023-03-13T06:29:14;8.27;;;3.60;;
18651;SDS011;9455;54.302;10.124;2023-03-13T06:31:41;8.03;;;3.73;;
18651;SDS011;9455;54.302;10.124;2023-03-13T06:34:09;12.93;;;4.47;;
18651;SDS011;9455;54.302;10.124;2023-03-13T06:36:36;5.73;;;3.53;;
18651;SDS011;9455;54.302;10.124;2023-03-13T06:39:04;11.53;;;3.00;;
18651;SDS011;9455;54.302;10.124;2023-03-13T06:41:31;5.20;;;2.40;;
18651;SDS011;9455;54.302;10.124;2023-03-13T06:43:58;7.90;;;3.07;;
18651;SDS011;9455;54.302;10.124;2023-03-13T06:46:25;8.07;;;3.40;;
18651;SDS011;9455;54.302;10.124;2023-03-13T06:48:51;5.53;;;3.17;;
18651;SDS011;9455;54.302;10.124;2023-03-13T06:51:19;12.40;;;3.17;;
18651;SDS011;9455;54.302;10.124;2023-03-13T06:53:47;5.60;;;2.63;;
18651;SDS011;9455;54.302;10.124;2023-03-13T06:56:17;6.93;;;2.93;;
18651;SDS011;9455;54.302;10.124;2023-03-13T06:58:45;7.77;;;3.27;;
18651;SDS011;9455;54.302;10.124;2023-03-13T07:01:13;6.30;;;2.53;;
18651;SDS011;9455;54.302;10.124;2023-03-13T07:03:41;3.83;;;2.60;;
18651;SDS011;9455;54.302;10.124;2023-03-13T07:06:09;3.03;;;2.70;;
18651;SDS011;9455;54.302;10.124;2023-03-13T07:08:36;8.47;;;2.93;;
18651;SDS011;9455;54.302;10.124;2023-03-13T07:11:04;5.40;;;2.60;;
18651;SDS011;9455;54.302;10.124;2023-03-13T07:13:33;2.73;;;2.10;;
18651;SDS011;9455;54.302;10.124;2023-03-13T07:16:00;2.73;;;2.50;;
18651;SDS011;9455;54.302;10.124;2023-03-13T07:18:28;2.33;;;2.00;;
18651;SDS011;9455;54.302;10.124;2023-03-13T07:20:55;4.53;;;1.83;;
18651;SDS011;9455;54.302;10.124;2023-03-13T07:23:24;4.60;;;2.13;;
18651;SDS011;9455;54.302;10.124;2023-03-13T07:25:52;1.87;;;1.83;;
18651;SDS011;9455;54.302;10.124;2023-03-13T07:28:20;4.13;;;2.10;;
18651;SDS011;9455;54.302;10.124;2023-03-13T07:30:48;1.73;;;1.63;;
18651;SDS011;9455;54.302;10.124;2023-03-13T07:33:14;1.83;;;1.70;;
18651;SDS011;9455;54.302;10.124;2023-03-13T07:35:46;3.03;;;1.60;;
18651;SDS011;9455;54.302;10.124;2023-03-13T07:38:13;1.97;;;1.87;;
18651;SDS011;9455;54.302;10.124;2023-03-13T07:40:39;3.40;;;2.30;;
18651;SDS011;9455;54.302;10.124;2023-03-13T07:43:13;3.03;;;2.00;;
18651;SDS011;9455;54.302;10.124;2023-03-13T07:45:49;2.30;;;2.10;;
18651;SDS011;9455;54.302;10.124;2023-03-13T07:48:17;3.93;;;2.77;;
18651;SDS011;9455;54.302;10.124;2023-03-13T07:50:43;2.53;;;2.33;;
18651;SDS011;9455;54.302;10.124;2023-03-13T07:53:10;5.60;;;3.23;;
18651;SDS011;9455;54.302;10.124;2023-03-13T07:55:36;3.00;;;2.70;;
18651;SDS011;9455;54.302;10.124;2023-03-13T07:58:03;6.07;;;3.23;;
18651;SDS011;9455;54.302;10.124;2023-03-13T08:00:30;4.50;;;3.00;;
18651;SDS011;9455;54.302;10.124;2023-03-13T08:02:57;3.80;;;3.50;;
18651;SDS011;9455;54.302;10.124;2023-03-13T08:05:24;5.50;;;3.30;;
18651;SDS011;9455;54.302;10.124;2023-03-13T08:07:51;3.30;;;2.83;;
18651;SDS011;9455;54.302;10.124;2023-03-13T08:10:17;3.60;;;3.10;;
18651;SDS011;9455;54.302;10.124;2023-03-13T08:12:44;3.00;;;2.80;;
18651;SDS011;9455;54.302;10.124;2023-03-13T08:15:10;2.70;;;2.40;;
18651;SDS011;9455;54.302;10.124;2023-03-13T08:17:37;3.23;;;1.97;;
18651;SDS011;9455;54.302;10.124;2023-03-13T08:20:05;4.97;;;2.40;;
18651;SDS011;9455;54.302;10.124;2023-03-13T08:22:34;2.87;;;1.87;;
18651;SDS011;9455;54.302;10.124;2023-03-13T08:25:01;4.67;;;3.00;;
18651;SDS011;9455;54.302;10.124;2023-03-13T08:27:28;2.13;;;2.00;;
18651;SDS011;9455;54.302;10.124;2023-03-13T08:29:54;2.60;;;2.47;;
18651;SDS011;9455;54.302;10.124;2023-03-13T08:32:21;2.70;;;2.00;;
18651;SDS011;9455;54.302;10.124;2023-03-13T08:34:47;2.07;;;1.97;;
18651;SDS011;9455;54.302;10.124;2023-03-13T08:37:15;2.00;;;1.73;;
18651;SDS011;9455;54.302;10.124;2023-03-13T08:39:42;2.23;;;2.10;;
18651;SDS011;9455;54.302;10.124;2023-03-13T08:42:10;1.67;;;1.57;;
18651;SDS011;9455;54.302;10.124;2023-03-13T08:44:38;7.20;;;1.60;;
18651;SDS011;9455;54.302;10.124;2023-03-13T08:47:05;1.97;;;1.87;;
18651;SDS011;9455;54.302;10.124;2023-03-13T08:49:32;2.77;;;1.60;;
18651;SDS011;9455;54.302;10.124;2023-03-13T08:51:58;1.73;;;1.63;;
18651;SDS011;9455;54.302;10.124;2023-03-13T08:54:27;1.80;;;1.70;;
18651;SDS011;9455;54.302;10.124;2023-03-13T08:56:53;1.57;;;1.47;;
18651;SDS011;9455;54.302;10.124;2023-03-13T08:59:20;1.53;;;1.53;;
18651;SDS011;9455;54.302;10.124;2023-03-13T09:01:46;2.57;;;1.13;;
18651;SDS011;9455;54.302;10.124;2023-03-13T09:04:13;1.20;;;1.10;;
18651;SDS011;9455;54.302;10.124;2023-03-13T09:06:39;1.70;;;1.60;;
18651;SDS011;9455;54.302;10.124;2023-03-13T09:09:06;1.37;;;1.37;;
18651;SDS011;9455;54.302;10.124;2023-03-13T09:11:35;1.63;;;1.13;;
18651;SDS011;9455;54.302;10.124;2023-03-13T09:14:02;1.10;;;1.10;;
18651;SDS011;9455;54.302;10.124;2023-03-13T09:16:29;1.60;;;1.10;;
18651;SDS011;9455;54.302;10.124;2023-03-13T09:18:57;1.83;;;1.33;;
18651;SDS011;9455;54.302;10.124;2023-03-13T09:21:25;1.70;;;1.20;;
18651;SDS011;9455;54.302;10.124;2023-03-13T09:23:53;2.00;;;0.90;;
18651;SDS011;9455;54.302;10.124;2023-03-13T09:26:20;0.90;;;0.90;;
18651;SDS011;9455;54.302;10.124;2023-03-13T09:28:48;0.93;;;0.93;;
18651;SDS011;9455;54.302;10.124;2023-03-13T09:31:16;1.10;;;1.10;;
18651;SDS011;9455;54.302;10.124;2023-03-13T09:33:44;0.80;;;0.80;;
18651;SDS011;9455;54.302;10.124;2023-03-13T09:36:12;0.90;;;0.90;;
18651;SDS011;9455;54.302;10.124;2023-03-13T09:38:39;1.00;;;1.00;;
18651;SDS011;9455;54.302;10.124;2023-03-13T09:41:10;3.50;;;1.10;;
18651;SDS011;9455;54.302;10.124;2023-03-13T09:43:47;2.40;;;1.27;;
18651;SDS011;9455;54.302;10.124;2023-03-13T09:46:21;1.00;;;1.00;;
18651;SDS011;9455;54.302;10.124;2023-03-13T09:48:52;16.13;;;6.43;;
18651;SDS011;9455;54.302;10.124;2023-03-13T09:51:23;2.17;;;1.80;;
18651;SDS011;9455;54.302;10.124;2023-03-13T09:53:54;8.63;;;2.43;;
18651;SDS011;9455;54.302;10.124;2023-03-13T09:56:25;0.83;;;0.83;;
18651;SDS011;9455;54.302;10.124;2023-03-13T09:58:58;1.00;;;1.00;;
18651;SDS011;9455;54.302;10.124;2023-03-13T10:01:34;0.60;;;0.60;;
18651;SDS011;9455;54.302;10.124;2023-03-13T10:04:05;0.80;;;0.73;;
18651;SDS011;9455;54.302;10.124;2023-03-13T10:06:39;0.60;;;0.60;;
18651;SDS011;9455;54.302;10.124;2023-03-13T10:09:14;3.33;;;0.60;;
18651;SDS011;9455;54.302;10.124;2023-03-13T10:11:46;0.53;;;0.50;;
18651;SDS011;9455;54.302;10.124;2023-03-13T10:14:19;0.70;;;0.70;;
18651;SDS011;9455;54.302;10.124;2023-03-13T10:16:53;0.90;;;0.90;;
18651;SDS011;9455;54.302;10.124;2023-03-13T10:19:26;0.57;;;0.57;;
18651;SDS011;9455;54.302;10.124;2023-03-13T10:21:57;2.00;;;0.70;;
18651;SDS011;9455;54.302;10.124;2023-03-13T10:24:29;1.43;;;1.03;;
18651;SDS011;9455;54.302;10.124;2023-03-13T10:26:58;0.80;;;0.80;;
18651;SDS011;9455;54.302;10.124;2023-03-13T10:29:27;0.90;;;0.90;;
18651;SDS011;9455;54.302;10.124;2023-03-13T10:31:55;0.80;;;0.80;;
18651;SDS011;9455;54.302;10.124;2023-03-13T10:34:23;0.83;;;0.83;;
18651;SDS011;9455;54.302;10.124;2023-03-13T10:36:53;1.27;;;1.17;;
18651;SDS011;9455;54.302;10.124;2023-03-13T10:39:23;3.03;;;1.60;;
18651;SDS011;9455;54.302;10.124;2023-03-13T10:41:55;2.43;;;1.40;;
18651;SDS011;9455;54.302;10.124;2023-03-13T10:44:30;1.50;;;1.30;;
18651;SDS011;9455;54.302;10.124;2023-03-13T10:46:58;3.47;;;1.60;;
18651;SDS011;9455;54.302;10.124;2023-03-13T10:49:26;3.93;;;1.20;;
18651;SDS011;9455;54.302;10.124;2023-03-13T10:51:55;2.53;;;0.97;;
18651;SDS011;9455;54.302;10.124;2023-03-13T10:54:23;1.87;;;1.40;;
18651;SDS011;9455;54.302;10.124;2023-03-13T10:56:51;1.57;;;1.47;;
18651;SDS011;9455;54.302;10.124;2023-03-13T10:59:21;1.67;;;1.57;;
18651;SDS011;9455;54.302;10.124;2023-03-13T11:01:51;9.60;;;1.60;;
18651;SDS011;9455;54.302;10.124;2023-03-13T11:04:19;1.93;;;1.73;;
18651;SDS011;9455;54.302;10.124;2023-03-13T11:06:56;2.23;;;1.33;;
18651;SDS011;9455;54.302;10.124;2023-03-13T11:09:26;1.03;;;1.03;;
18651;SDS011;9455;54.302;10.124;2023-03-13T11:11:54;1.50;;;1.40;;
18651;SDS011;9455;54.302;10.124;2023-03-13T11:14:26;1.17;;;1.17;;
18651;SDS011;9455;54.302;10.124;2023-03-13T11:16:54;0.80;;;0.80;;
18651;SDS011;9455;54.302;10.124;2023-03-13T11:19:30;3.90;;;1.30;;
18651;SDS011;9455;54.302;10.124;2023-03-13T11:22:12;2.30;;;1.20;;
18651;SDS011;9455;54.302;10.124;2023-03-13T11:24:45;1.00;;;1.00;;
18651;SDS011;9455;54.302;10.124;2023-03-13T11:27:20;5.37;;;1.30;;
18651;SDS011;9455;54.302;10.124;2023-03-13T11:29:56;3.20;;;1.20;;
18651;SDS011;9455;54.302;10.124;2023-03-13T11:32:35;2.23;;;1.27;;
18651;SDS011;9455;54.302;10.124;2023-03-13T11:35:09;0.73;;;0.67;;
18651;SDS011;9455;54.302;10.124;2023-03-13T11:37:44;2.87;;;1.00;;
18651;SDS011;9455;54.302;10.124;2023-03-13T11:40:14;1.73;;;0.93;;
18651;SDS011;9455;54.302;10.124;2023-03-13T11:42:52;1.13;;;1.00;;
18651;SDS011;9455;54.302;10.124;2023-03-13T11:51:26;3.97;;;1.07;;
18651;SDS011;9455;54.302;10.124;2023-03-13T11:54:09;1.87;;;0.70;;
18651;SDS011;9455;54.302;10.124;2023-03-13T11:56:49;4.07;;;2.37;;
18651;SDS011;9455;54.302;10.124;2023-03-13T11:59:23;0.87;;;0.40;;
18651;SDS011;9455;54.302;10.124;2023-03-13T12:01:58;3.13;;;0.90;;
18651;SDS011;9455;54.302;10.124;2023-03-13T12:04:31;1.73;;;1.03;;
18651;SDS011;9455;54.302;10.124;2023-03-13T12:07:02;2.20;;;0.70;;
18651;SDS011;9455;54.302;10.124;2023-03-13T12:09:32;5.80;;;0.93;;
18651;SDS011;9455;54.302;10.124;2023-03-13T12:12:04;3.43;;;1.43;;
18651;SDS011;9455;54.302;10.124;2023-03-13T12:14:42;1.87;;;0.77;;
18651;SDS011;9455;54.302;10.124;2023-03-13T12:17:12;2.23;;;1.30;;
18651;SDS011;9455;54.302;10.124;2023-03-13T12:19:46;5.00;;;1.27;;
18651;SDS011;9455;54.302;10.124;2023-03-13T12:22:18;10.50;;;1.17;;
18651;SDS011;9455;54.302;10.124;2023-03-13T12:24:50;3.70;;;1.10;;
18651;SDS011;9455;54.302;10.124;2023-03-13T12:27:24;3.33;;;0.80;;
18651;SDS011;9455;54.302;10.124;2023-03-13T12:29:57;3.90;;;1.67;;
18651;SDS011;9455;54.302;10.124;2023-03-13T12:32:28;6.60;;;1.50;;
18651;SDS011;9455;54.302;10.124;2023-03-13T12:35:05;7.63;;;1.50;;
18651;SDS011;9455;54.302;10.124;2023-03-13T12:37:35;3.13;;;0.90;;
18651;SDS011;9455;54.302;10.124;2023-03-13T12:40:10;7.70;;;1.23;;
18651;SDS011;9455;54.302;10.124;2023-03-13T12:42:45;7.47;;;1.30;;
18651;SDS011;9455;54.302;10.124;2023-03-13T12:45:20;11.07;;;1.23;;
18651;SDS011;9455;54.302;10.124;2023-03-13T12:47:55;11.27;;;1.70;;
18651;SDS011;9455;54.302;10.124;2023-03-13T12:50:44;5.73;;;1.27;;
18651;SDS011;9455;54.302;10.124;2023-03-13T12:53:37;3.37;;;1.00;;
18651;SDS011;9455;54.302;10.124;2023-03-13T12:56:22;7.20;;;1.57;;
18651;SDS011;9455;54.302;10.124;2023-03-13T12:59:01;5.97;;;1.77;;
18651;SDS011;9455;54.302;10.124;2023-03-13T13:01:33;7.73;;;2.00;;
18651;SDS011;9455;54.302;10.124;2023-03-13T13:04:05;4.07;;;1.33;;
18651;SDS011;9455;54.302;10.124;2023-03-13T13:06:58;1.67;;;1.13;;
18651;SDS011;9455;54.302;10.124;2023-03-13T13:09:27;5.43;;;1.60;;
18651;SDS011;9455;54.302;10.124;2023-03-13T13:11:56;7.87;;;1.47;;
18651;SDS011;9455;54.302;10.124;2023-03-13T13:17:34;15.50;;;1.43;;
18651;SDS011;9455;54.302;10.124;2023-03-13T13:35:25;7.90;;;1.40;;
18651;SDS011;9455;54.302;10.124;2023-03-13T13:38:19;12.03;;;2.00;;
18651;SDS011;9455;54.302;10.124;2023-03-13T13:40:59;10.10;;;1.50;;
18651;SDS011;9455;54.302;10.124;2023-03-13T13:43:29;3.23;;;1.00;;
18651;SDS011;9455;54.302;10.124;2023-03-13T13:45:58;6.33;;;1.30;;
18651;SDS011;9455;54.302;10.124;2023-03-13T13:48:30;6.93;;;1.50;;
18651;SDS011;9455;54.302;10.124;2023-03-13T13:51:19;6.03;;;1.50;;
18651;SDS011;9455;54.302;10.124;2023-03-13T13:53:48;7.20;;;2.60;;
18651;SDS011;9455;54.302;10.124;2023-03-13T13:56:33;6.73;;;1.67;;
18651;SDS011;9455;54.302;10.124;2023-03-13T13:59:04;7.40;;;1.47;;
18651;SDS011;9455;54.302;10.124;2023-03-13T14:01:46;7.10;;;1.40;;
18651;SDS011;9455;54.302;10.124;2023-03-13T14:04:15;6.87;;;1.50;;
18651;SDS011;9455;54.302;10.124;2023-03-13T14:06:49;4.37;;;1.50;;
18651;SDS011;9455;54.302;10.124;2023-03-13T14:09:21;7.37;;;1.80;;
18651;SDS011;9455;54.302;10.124;2023-03-13T14:11:57;9.97;;;1.30;;
18651;SDS011;9455;54.302;10.124;2023-03-13T14:14:24;4.57;;;1.30;;
18651;SDS011;9455;54.302;10.124;2023-03-13T14:16:52;10.73;;;1.80;;
18651;SDS011;9455;54.302;10.124;2023-03-13T14:19:24;7.93;;;2.13;;
18651;SDS011;9455;54.302;10.124;2023-03-13T14:22:01;3.43;;;1.30;;
18651;SDS011;9455;54.302;10.124;2023-03-13T14:24:29;6.13;;;1.50;;
18651;SDS011;9455;54.302;10.124;2023-03-13T14:26:57;3.20;;;1.63;;
18651;SDS011;9455;54.302;10.124;2023-03-13T14:29:24;6.67;;;1.67;;
18651;SDS011;9455;54.302;10.124;2023-03-13T14:31:52;9.93;;;1.53;;
18651;SDS011;9455;54.302;10.124;2023-03-13T14:34:20;7.03;;;1.03;;
18651;SDS011;9455;54.302;10.124;2023-03-13T14:36:48;2.57;;;1.30;;
18651;SDS011;9455;54.302;10.124;2023-03-13T14:39:16;13.13;;;1.80;;
18651;SDS011;9455;54.302;10.124;2023-03-13T14:41:46;9.20;;;1.80;;
18651;SDS011;9455;54.302;10.124;2023-03-13T14:44:19;4.93;;;1.70;;
18651;SDS011;9455;54.302;10.124;2023-03-13T14:46:51;7.37;;;1.57;;
18651;SDS011;9455;54.302;10.124;2023-03-13T14:49:21;4.93;;;1.07;;
18651;SDS011;9455;54.302;10.124;2023-03-13T14:51:56;5.40;;;1.30;;
18651;SDS011;9455;54.302;10.124;2023-03-13T14:54:27;3.87;;;1.00;;
18651;SDS011;9455;54.302;10.124;2023-03-13T14:57:02;5.57;;;1.40;;
18651;SDS011;9455;54.302;10.124;2023-03-13T14:59:32;6.57;;;1.40;;
18651;SDS011;9455;54.302;10.124;2023-03-13T15:01:59;3.70;;;1.70;;
18651;SDS011;9455;54.302;10.124;2023-03-13T15:04:47;2.10;;;1.00;;
18651;SDS011;9455;54.302;10.124;2023-03-13T15:07:19;5.73;;;1.53;;
18651;SDS011;9455;54.302;10.124;2023-03-13T15:09:47;2.23;;;1.13;;
18651;SDS011;9455;54.302;10.124;2023-03-13T15:12:15;3.23;;;1.20;;
18651;SDS011;9455;54.302;10.124;2023-03-13T15:14:45;5.10;;;1.30;;
18651;SDS011;9455;54.302;10.124;2023-03-13T15:17:15;8.00;;;1.10;;
18651;SDS011;9455;54.302;10.124;2023-03-13T15:19:46;3.50;;;1.33;;
18651;SDS011;9455;54.302;10.124;2023-03-13T15:22:15;4.60;;;1.50;;